Coeur D'Alene - Pappy Boyington Field
KCOE : rendu visible

Aérodrome :











RETROUVEZ-NOUS SUR...

 
LOGIN :

S'inscrire | Disclaimer

   EN    FR    IT 

 









Légende :    VFR   VFR Marginal   IFR   IFR Intensif   IFR Très Intensif
Visi : 
Plafond : 
>= 8 km
>= 3000ft
5 à 8 km
1000 à 3000 ft
1500m à 5 km
500 à 1000 ft
800 à 1500m
200 à 500 ft
< 800m
< 200 ft
Symboles :   Orages  Brouillard  Fortes neiges  Fortes précipitations  Vent > 20 kt






- Altitude de l'aérodrome : 2320 ft


KCOE - Coeur D'Alene - Pappy Boyington Field

DERNIER METAR :
  • 261756Z AUTO 00000KT 10SM SCT025 OVC036 16/11 A3006 RMK AO2 SLP190 T01560106 10161 20122 58000

METARs EXPIRÉS :
  • 261656Z AUTO VRB04KT 10SM OVC020 14/11 A3006 RMK AO2 SLP194 T01440106
  • 261614Z AUTO 27004KT 10SM OVC017 14/11 A3006 RMK AO2
  • 261556Z AUTO 23004KT 10SM BKN013 OVC021 14/11 A3006 RMK AO2 SLP193 T01390106

TAF KCOE
Valide du 26 à 18h jusqu'au 27 à 18h UTC


261722Z 2618/2718 19006KT P6SM BKN025
FM262000 24009G16KT P6SM VCSH BKN040 BKN060
FM270100 20007KT P6SM SCT050 SCT100 BKN200
FM270400 15004KT P6SM FEW070 SCT250
FM271100 05005KT P6SM FEW250
FIR KZSE / Amérique du Nord



MET'MAP, la Météo Aéronautique d'un coup d'oeil ! - Copyright ORBIFLY Décembre 2007 - Disclaimer

ORBIFLY MET'MAP TEAM :

Programmation & Développement : Alexandra Zaïnal
Sur une idée originale de : Baudouin d'Aumeries
Assistance à la programmation : Marc-Olivier Méhu
Soutien technique & logistique : Manuel Goepfert

Contact : metmap@orbifly.com




SOURCES & CREDITS :

   NOAA       Earth
Advisory